createdAt,value
2019-03-05T00:03:35.987Z,88.88
2019-03-05T00:17:39.344Z,90.12
2019-03-05T00:20:23.802Z,90.34
2019-03-05T00:23:56.072Z,89.88
2019-03-05T00:27:19.650Z,89.66
2019-03-05T00:30:18.431Z,89.54
2019-03-05T00:41:04.372Z,89.06
2019-03-05T00:44:39.587Z,88.45
2019-03-05T00:48:20.062Z,88.07
2019-03-05T00:55:24.861Z,87.65
2019-03-05T01:02:47.175Z,86.22
2019-03-05T01:05:57.651Z,85.54
2019-03-05T01:08:25.121Z,85.31
2019-03-05T01:28:50.028Z,82.86
2019-03-05T01:36:30.465Z,81.87
2019-03-05T01:43:17.144Z,81.58
2019-03-05T02:00:02.869Z,79.82
2019-03-05T02:03:34.764Z,79.42
2019-03-05T02:06:19.522Z,78.91
2019-03-05T02:08:52.476Z,79.11
2019-03-05T02:12:10.496Z,78.81
2019-03-05T02:15:08.331Z,78.54
2019-03-05T02:18:02.465Z,78.53
2019-03-05T02:21:02.501Z,78.48
2019-03-05T02:24:15.000Z,77.96
2019-03-05T02:27:35.685Z,77.90
2019-03-05T02:30:55.708Z,77.95
2019-03-05T02:34:11.119Z,78.17
2019-03-05T02:37:19.807Z,77.96
2019-03-05T02:40:12.796Z,78.39
2019-03-05T02:42:54.720Z,78.13
2019-03-05T02:46:02.764Z,77.75
2019-03-05T02:49:31.921Z,77.66
2019-03-05T02:52:18.459Z,77.74
2019-03-05T02:55:24.721Z,77.77
2019-03-05T02:57:51.091Z,77.55
2019-03-05T03:00:27.344Z,77.84
2019-03-05T03:02:58.551Z,77.17
2019-03-05T03:05:48.378Z,77.30
2019-03-05T03:08:15.957Z,76.97
2019-03-05T03:10:43.445Z,77.11
2019-03-05T03:13:11.067Z,77.13
2019-03-05T03:16:17.428Z,76.84
2019-03-05T04:18:22.808Z,77.86
2019-03-05T04:37:25.796Z,80.00
2019-03-05T05:17:27.857Z,83.70
2019-03-05T05:33:53.618Z,83.05
2019-03-05T05:34:43.183Z,82.44
2019-03-05T05:41:09.514Z,82.43
2019-03-05T05:47:42.232Z,81.81
2019-03-05T05:50:24.150Z,81.35
2019-03-05T05:53:24.679Z,81.33
2019-03-05T05:56:22.039Z,81.59
2019-03-05T06:02:55.787Z,81.48
2019-03-05T06:06:32.621Z,81.17
2019-03-05T06:13:48.522Z,80.53
2019-03-05T06:17:12.510Z,80.68
2019-03-05T06:20:19.763Z,80.60
2019-03-05T06:23:35.503Z,80.64
2019-03-05T06:27:02.963Z,80.36
2019-03-05T06:33:21.216Z,80.21
2019-03-05T06:39:30.822Z,80.09
2019-03-05T06:42:19.948Z,79.80
2019-03-05T06:44:48.538Z,79.72
2019-03-05T06:47:36.135Z,80.09
2019-03-05T06:50:18.984Z,79.70
2019-03-05T06:52:57.718Z,79.65
2019-03-05T06:55:43.098Z,79.45
2019-03-05T06:58:23.374Z,79.37
2019-03-05T07:01:07.811Z,79.57
2019-03-05T07:03:38.127Z,79.11
2019-03-05T07:06:41.633Z,78.91
2019-03-05T07:09:21.793Z,78.87
2019-03-05T07:12:27.488Z,78.20
2019-03-05T07:15:47.533Z,78.20
2019-03-05T07:18:28.398Z,77.96
2019-03-05T07:21:26.263Z,78.89
2019-03-05T07:24:46.422Z,81.16
2019-03-05T07:27:16.493Z,82.79
2019-03-05T07:29:47.557Z,83.46
2019-03-05T07:32:41.161Z,83.67
2019-03-05T07:35:39.354Z,83.59
2019-03-05T07:38:26.474Z,83.55
2019-03-05T07:40:54.148Z,83.95
2019-03-05T07:43:56.687Z,83.09
2019-03-05T07:46:56.127Z,82.92
2019-03-05T07:50:35.104Z,82.39
2019-03-05T07:53:49.071Z,83.30
2019-03-05T07:57:02.374Z,83.21
2019-03-05T07:59:39.789Z,83.75
2019-03-05T08:02:14.302Z,83.83
2019-03-05T08:05:30.045Z,83.84
2019-03-05T08:09:04.308Z,83.97
2019-03-05T08:12:04.764Z,84.50
2019-03-05T08:15:23.139Z,85.04
2019-03-05T08:18:27.286Z,86.01
2019-03-05T08:21:25.833Z,86.36
2019-03-05T08:24:17.564Z,86.14
2019-03-05T08:26:48.139Z,84.26
2019-03-05T08:30:36.203Z,79.86
2019-03-05T08:37:19.961Z,76.98
2019-03-05T08:58:56.997Z,75.18
2019-03-05T09:10:14.270Z,74.47
2019-03-05T09:16:54.580Z,73.30
2019-03-05T09:20:42.727Z,74.50
2019-03-05T09:23:38.992Z,75.06
2019-03-05T09:26:34.203Z,75.80
2019-03-05T09:29:15.745Z,76.29
2019-03-05T09:32:39.708Z,78.55
2019-03-05T09:43:54.742Z,83.08
2019-03-05T10:26:46.001Z,82.27
2019-03-05T10:30:31.142Z,81.37
2019-03-05T10:36:53.893Z,82.02
2019-03-05T10:39:52.926Z,81.09
2019-03-05T10:43:09.308Z,80.83
2019-03-05T10:46:42.129Z,82.63
2019-03-05T10:55:09.677Z,79.32
2019-03-05T11:00:35.480Z,77.61
2019-03-05T11:04:45.392Z,78.25
2019-03-05T11:27:45.432Z,73.62
2019-03-05T11:34:13.686Z,74.49
2019-03-05T11:37:35.976Z,75.16
2019-03-05T11:44:55.749Z,74.28
2019-03-05T11:51:37.911Z,74.20
2019-03-05T11:58:37.664Z,72.87
2019-03-05T12:15:35.613Z,75.58
2019-03-05T12:21:35.544Z,77.05
2019-03-05T12:24:57.569Z,76.04
2019-03-05T12:27:28.349Z,73.97
2019-03-05T12:31:04.019Z,73.29
2019-03-05T12:34:33.969Z,73.66
2019-03-05T12:51:54.439Z,72.31
2019-03-05T13:02:33.813Z,69.84
2019-03-05T13:08:44.285Z,69.00
2019-03-05T13:11:19.727Z,67.28
2019-03-05T13:15:12.450Z,66.41
2019-03-05T13:18:49.282Z,66.02
2019-03-05T13:21:48.632Z,66.64
2019-03-05T13:24:46.879Z,65.81
2019-03-05T13:27:18.711Z,65.81
2019-03-05T13:29:52.726Z,65.66
2019-03-05T13:32:22.417Z,65.77
2019-03-05T13:35:14.535Z,64.62
2019-03-05T13:38:03.231Z,65.63
2019-03-05T13:40:38.240Z,65.69
2019-03-05T13:43:09.849Z,64.28
2019-03-05T13:46:14.540Z,64.14
2019-03-05T13:50:37.742Z,63.31
2019-03-05T13:53:14.793Z,61.15
2019-03-05T13:56:18.928Z,61.45
2019-03-05T13:59:42.413Z,62.08
2019-03-05T14:02:26.282Z,62.92
2019-03-05T14:05:26.736Z,62.40
2019-03-05T14:08:40.484Z,61.92
2019-03-05T14:11:26.903Z,61.91
2019-03-05T14:13:56.843Z,62.18
2019-03-05T14:16:29.781Z,61.22
2019-03-05T14:19:01.066Z,62.19
2019-03-05T14:21:38.583Z,60.87
2019-03-05T14:24:14.916Z,60.42
2019-03-05T14:26:43.182Z,61.07
2019-03-05T14:29:46.003Z,61.50
2019-03-05T14:32:36.382Z,61.36
2019-03-05T14:35:21.533Z,61.57
2019-03-05T14:37:57.828Z,60.88
2019-03-05T14:40:50.550Z,60.82
2019-03-05T14:43:40.736Z,60.47
2019-03-05T14:49:25.948Z,60.19
2019-03-05T14:51:54.645Z,60.16
2019-03-05T14:54:25.915Z,60.75
2019-03-05T14:56:54.446Z,60.70
2019-03-05T14:59:27.184Z,61.15
2019-03-05T15:01:58.753Z,60.22
2019-03-05T15:04:28.864Z,59.90
2019-03-05T15:07:00.020Z,59.69
2019-03-05T15:09:28.231Z,60.06
2019-03-05T15:12:00.630Z,60.61
2019-03-05T15:14:30.264Z,60.24
2019-03-05T15:17:05.583Z,60.18
2019-03-05T15:19:40.079Z,60.09
2019-03-05T15:22:13.460Z,60.03
2019-03-05T15:25:04.259Z,60.48
2019-03-05T15:27:32.364Z,60.03
2019-03-05T15:30:00.229Z,60.74
2019-03-05T15:32:40.616Z,60.60
2019-03-05T15:35:18.788Z,60.06
2019-03-05T15:37:49.190Z,59.97
2019-03-05T15:40:28.672Z,60.07
2019-03-05T15:43:16.804Z,60.07
2019-03-05T15:46:00.999Z,60.09
2019-03-05T15:48:40.365Z,59.94
2019-03-05T15:51:25.669Z,60.14
2019-03-05T15:53:53.534Z,60.65
2019-03-05T15:56:21.451Z,60.99
2019-03-05T15:58:49.733Z,61.66
2019-03-05T16:01:22.195Z,61.42
2019-03-05T16:03:47.673Z,61.58
2019-03-05T16:06:15.767Z,61.25
2019-03-05T16:08:46.272Z,61.58
2019-03-05T16:11:14.331Z,62.58
2019-03-05T16:13:42.160Z,62.75
2019-03-05T16:16:10.286Z,62.59
2019-03-05T16:18:43.004Z,62.70
2019-03-05T16:21:11.478Z,62.77
2019-03-05T16:23:40.414Z,62.41
2019-03-05T16:26:08.253Z,63.33
2019-03-05T16:28:39.322Z,63.34
2019-03-05T16:31:27.466Z,62.44
2019-03-05T16:34:14.416Z,63.29
2019-03-05T16:37:10.397Z,63.55
2019-03-05T16:40:12.753Z,63.34
2019-03-05T16:43:00.191Z,63.67
2019-03-05T16:45:59.410Z,63.34
2019-03-05T16:48:53.795Z,63.71
2019-03-05T16:51:30.200Z,64.32
2019-03-05T16:54:17.283Z,64.46
2019-03-05T16:57:22.486Z,64.20
2019-03-05T16:59:55.747Z,64.64
2019-03-05T17:02:48.764Z,64.66
2019-03-05T17:05:56.752Z,65.03
2019-03-05T17:08:50.436Z,65.05
2019-03-05T17:11:33.261Z,65.50
2019-03-05T17:14:00.961Z,66.23
2019-03-05T17:16:28.856Z,66.41
2019-03-05T17:18:57.670Z,66.18
2019-03-05T17:21:27.842Z,66.31
2019-03-05T17:23:55.946Z,66.34
2019-03-05T17:26:24.001Z,66.99
2019-03-05T17:28:52.160Z,67.32
2019-03-05T17:31:21.767Z,67.38
2019-03-05T17:33:49.964Z,67.16
2019-03-05T17:36:18.033Z,67.82
2019-03-05T17:38:45.893Z,67.58
2019-03-05T17:41:13.813Z,68.11
2019-03-05T17:43:43.903Z,68.51
2019-03-05T17:46:11.769Z,68.57
2019-03-05T17:48:41.303Z,68.44
2019-03-05T17:51:09.278Z,68.61
2019-03-05T17:53:37.164Z,68.53
2019-03-05T17:56:07.239Z,68.88
2019-03-05T17:58:35.413Z,69.01
2019-03-05T18:01:06.143Z,69.04
2019-03-05T18:03:34.114Z,69.29
2019-03-05T18:06:02.023Z,68.91
2019-03-05T18:08:30.021Z,69.06
2019-03-05T18:10:57.963Z,69.03
2019-03-05T18:13:28.145Z,69.20
2019-03-05T18:15:56.214Z,69.43
2019-03-05T18:18:24.188Z,69.45
2019-03-05T18:20:53.041Z,69.54
2019-03-05T18:23:20.952Z,69.74
2019-03-05T18:25:48.761Z,69.70
2019-03-05T18:28:16.631Z,69.72
2019-03-05T18:30:48.128Z,69.55
2019-03-05T18:33:16.026Z,69.92
2019-03-05T18:35:48.800Z,69.96
2019-03-05T18:38:37.774Z,70.37
2019-03-05T18:41:16.944Z,70.57
2019-03-05T18:43:45.324Z,70.63
2019-03-05T18:46:16.836Z,70.74
2019-03-05T18:48:49.790Z,71.02
2019-03-05T18:51:21.331Z,71.13
2019-03-05T18:53:49.726Z,71.14
2019-03-05T18:56:21.081Z,71.27
2019-03-05T18:58:49.355Z,71.73
2019-03-05T19:01:19.489Z,71.70
2019-03-05T19:03:47.571Z,71.55
2019-03-05T19:06:15.729Z,71.31
2019-03-05T19:08:43.929Z,71.26
2019-03-05T19:11:11.848Z,71.19
2019-03-05T19:13:39.823Z,70.96
2019-03-05T19:16:07.962Z,70.99
2019-03-05T19:18:37.237Z,71.18
2019-03-05T19:21:05.571Z,71.64
2019-03-05T19:23:38.602Z,71.04
2019-03-05T19:26:08.478Z,70.98
2019-03-05T19:29:06.094Z,70.71
2019-03-05T19:31:43.740Z,70.91
2019-03-05T19:34:40.740Z,71.25
2019-03-05T19:37:38.058Z,71.63
2019-03-05T19:40:15.977Z,71.96
2019-03-05T19:42:56.813Z,71.69
2019-03-05T19:45:33.757Z,71.83
2019-03-05T19:48:27.916Z,71.87
2019-03-05T19:51:10.336Z,72.05
2019-03-05T19:53:45.067Z,72.02
2019-03-05T19:56:16.496Z,72.39
2019-03-05T19:58:50.814Z,72.61
2019-03-05T20:01:39.026Z,72.92
2019-03-05T20:04:11.613Z,73.04
2019-03-05T20:06:36.875Z,73.47
2019-03-05T20:09:06.643Z,73.72
2019-03-05T20:11:34.689Z,74.16
2019-03-05T20:14:03.090Z,74.49
2019-03-05T20:16:31.328Z,74.53
2019-03-05T20:19:00.343Z,74.64
2019-03-05T20:21:28.322Z,75.17
2019-03-05T20:23:59.297Z,75.62
2019-03-05T20:26:28.534Z,76.12
2019-03-05T20:28:59.601Z,76.31
2019-03-05T20:31:29.231Z,76.72
2019-03-05T20:34:10.252Z,76.88
2019-03-05T20:36:38.223Z,77.03
2019-03-05T20:39:06.632Z,77.02
2019-03-05T20:41:37.478Z,76.92
2019-03-05T20:44:05.485Z,76.96
2019-03-05T20:46:33.331Z,77.05
2019-03-05T20:49:01.481Z,76.94
2019-03-05T20:51:29.480Z,76.98
2019-03-05T20:53:58.150Z,77.07
2019-03-05T20:56:26.304Z,77.21
2019-03-05T20:58:54.527Z,76.99
2019-03-05T21:01:22.545Z,77.16
2019-03-05T21:03:50.621Z,76.85
2019-03-05T21:06:20.903Z,77.11
2019-03-05T21:08:50.593Z,77.18
2019-03-05T21:11:21.323Z,77.06
2019-03-05T21:13:49.277Z,76.93
2019-03-05T21:16:18.206Z,76.78
2019-03-05T21:18:46.563Z,77.03
2019-03-05T21:21:14.502Z,76.57
2019-03-05T21:23:42.506Z,76.90
2019-03-05T21:26:10.328Z,76.83
2019-03-05T21:28:38.316Z,76.62
2019-03-05T21:31:06.448Z,76.92
2019-03-05T21:33:34.324Z,76.99
2019-03-05T21:36:02.047Z,77.07
2019-03-05T21:38:30.069Z,77.66
2019-03-05T21:40:57.854Z,77.69
2019-03-05T21:43:25.533Z,77.72
2019-03-05T21:45:54.531Z,78.14
2019-03-05T21:48:22.345Z,78.13
2019-03-05T21:50:51.292Z,78.22
2019-03-05T21:53:19.050Z,78.40
2019-03-05T21:55:48.711Z,78.43
2019-03-05T21:58:16.468Z,78.69
2019-03-05T22:00:44.053Z,78.95
2019-03-05T22:03:11.853Z,78.74
2019-03-05T22:05:39.300Z,78.16
2019-03-05T22:08:07.782Z,78.03
2019-03-05T22:10:35.514Z,77.74
2019-03-05T22:13:03.012Z,77.88
2019-03-05T22:15:30.561Z,77.62
2019-03-05T22:17:58.105Z,77.47
2019-03-05T22:20:25.619Z,77.45
2019-03-05T22:22:56.089Z,77.50
2019-03-05T22:25:23.581Z,77.92
2019-03-05T22:27:51.069Z,77.96
2019-03-05T22:30:20.686Z,77.25
2019-03-05T22:32:50.185Z,77.22
2019-03-05T22:35:18.146Z,77.17
2019-03-05T22:37:45.607Z,77.03
2019-03-05T22:40:13.539Z,77.01
2019-03-05T22:42:41.077Z,76.90
2019-03-05T22:45:13.668Z,77.04
2019-03-05T22:47:42.066Z,76.88
2019-03-05T22:50:10.223Z,76.78
2019-03-05T22:52:37.646Z,77.15
2019-03-05T22:55:05.361Z,77.64
2019-03-05T22:57:32.778Z,77.55
2019-03-05T23:00:00.364Z,77.75
2019-03-05T23:02:28.298Z,77.56
2019-03-05T23:04:56.222Z,77.88
2019-03-05T23:07:23.642Z,78.06
2019-03-05T23:09:51.404Z,77.77
2019-03-05T23:12:18.953Z,77.93
2019-03-05T23:14:46.481Z,78.00
2019-03-05T23:17:14.197Z,77.92
2019-03-05T23:19:41.733Z,78.04
2019-03-05T23:22:09.316Z,78.07
2019-03-05T23:24:37.203Z,78.36
2019-03-05T23:27:06.528Z,78.07
2019-03-05T23:29:52.348Z,78.02
2019-03-05T23:32:28.569Z,78.12
2019-03-05T23:34:56.593Z,78.13
2019-03-05T23:37:24.490Z,78.16
2019-03-05T23:39:51.979Z,78.64
2019-03-05T23:42:20.209Z,78.77
2019-03-05T23:44:47.678Z,79.11
2019-03-05T23:47:15.213Z,79.20
2019-03-05T23:49:42.731Z,79.33
2019-03-05T23:52:10.224Z,79.39
2019-03-05T23:54:37.714Z,79.68
2019-03-05T23:57:05.114Z,79.86
2019-03-05T23:59:32.732Z,80.06
